createdAt,value
2018-07-17T00:02:08.679Z,2.53
2018-07-17T00:04:37.222Z,2.60
2018-07-17T00:07:05.786Z,2.90
2018-07-17T00:09:34.407Z,2.90
2018-07-17T00:12:02.997Z,2.53
2018-07-17T00:14:31.601Z,2.50
2018-07-17T00:17:00.153Z,2.60
2018-07-17T00:19:28.381Z,2.70
2018-07-17T00:21:56.957Z,2.90
2018-07-17T00:24:25.518Z,2.90
2018-07-17T00:26:54.081Z,3.27
2018-07-17T00:29:22.845Z,3.03
2018-07-17T00:31:53.725Z,4.27
2018-07-17T00:34:22.273Z,4.27
2018-07-17T00:36:51.390Z,6.03
2018-07-17T00:39:21.465Z,5.73
2018-07-17T00:41:49.989Z,6.90
2018-07-17T00:44:19.135Z,7.03
2018-07-17T00:46:47.657Z,6.43
2018-07-17T00:49:16.246Z,6.93
2018-07-17T00:51:45.118Z,6.60
2018-07-17T00:54:13.653Z,6.10
2018-07-17T00:56:42.222Z,6.60
2018-07-17T00:59:11.457Z,6.30
2018-07-17T01:01:47.041Z,6.43
2018-07-17T01:04:20.889Z,5.77
2018-07-17T01:06:55.036Z,5.80
2018-07-17T01:09:28.948Z,6.30
2018-07-17T01:12:03.862Z,5.97
2018-07-17T01:14:40.637Z,5.77
2018-07-17T01:17:09.596Z,6.27
2018-07-17T01:19:38.121Z,6.30
2018-07-17T01:22:06.701Z,6.73
2018-07-17T01:24:35.261Z,6.30
2018-07-17T01:27:03.941Z,7.17
2018-07-17T01:29:32.457Z,6.97
2018-07-17T01:32:01.262Z,7.37
2018-07-17T01:34:29.801Z,7.43
2018-07-17T01:36:58.345Z,6.70
2018-07-17T01:39:26.905Z,7.73
2018-07-17T01:41:55.435Z,7.07
2018-07-17T01:44:23.981Z,6.93
2018-07-17T01:46:52.533Z,6.70
2018-07-17T01:49:21.066Z,6.90
2018-07-17T01:51:49.581Z,6.20
2018-07-17T01:54:18.121Z,6.97
2018-07-17T01:56:47.330Z,6.33
2018-07-17T01:59:15.910Z,5.90
2018-07-17T02:01:45.313Z,6.03
2018-07-17T02:04:13.873Z,5.70
2018-07-17T02:06:42.405Z,5.33
2018-07-17T02:09:10.937Z,5.23
2018-07-17T02:11:39.965Z,5.77
2018-07-17T02:14:08.493Z,5.27
2018-07-17T02:16:37.014Z,5.30
2018-07-17T02:19:06.707Z,5.37
2018-07-17T02:21:35.218Z,4.97
2018-07-17T02:24:03.783Z,4.70
2018-07-17T02:26:32.329Z,4.40
2018-07-17T02:29:00.849Z,4.53
2018-07-17T02:31:30.172Z,4.30
2018-07-17T02:33:58.698Z,4.50
2018-07-17T02:36:27.243Z,3.90
2018-07-17T02:38:55.811Z,4.10
2018-07-17T02:41:24.364Z,4.07
2018-07-17T02:43:52.864Z,3.80
2018-07-17T02:46:21.422Z,4.00
2018-07-17T02:48:50.076Z,3.37
2018-07-17T02:51:18.659Z,3.20
2018-07-17T02:53:47.200Z,3.47
2018-07-17T02:56:15.722Z,3.30
2018-07-17T02:58:44.265Z,3.27
2018-07-17T03:01:12.831Z,3.00
2018-07-17T03:03:41.379Z,2.90
2018-07-17T03:06:09.922Z,2.90
2018-07-17T03:08:38.455Z,2.90
2018-07-17T03:11:07.033Z,2.60
2018-07-17T03:13:35.599Z,2.83
2018-07-17T03:16:04.176Z,2.30
2018-07-17T03:18:32.706Z,2.90
2018-07-17T03:21:01.243Z,2.70
2018-07-17T03:23:29.894Z,2.80
2018-07-17T03:25:59.127Z,2.93
2018-07-17T03:28:27.676Z,2.50
2018-07-17T03:30:56.960Z,2.53
2018-07-17T03:33:26.057Z,3.00
2018-07-17T03:35:55.609Z,2.63
2018-07-17T03:38:23.860Z,2.60
2018-07-17T03:40:52.389Z,2.90
2018-07-17T03:43:21.355Z,2.80
2018-07-17T03:45:49.554Z,2.80
2018-07-17T03:48:18.081Z,2.97
2018-07-17T03:50:46.626Z,3.10
2018-07-17T03:53:15.205Z,2.97
2018-07-17T03:55:43.754Z,2.97
2018-07-17T03:58:12.277Z,3.03
2018-07-17T04:00:40.815Z,2.40
2018-07-17T04:03:09.684Z,2.90
2018-07-17T04:05:39.589Z,3.00
2018-07-17T04:08:08.139Z,2.57
2018-07-17T04:10:36.677Z,2.87
2018-07-17T04:13:05.445Z,3.00
2018-07-17T04:15:34.014Z,3.10
2018-07-17T04:18:02.662Z,3.10
2018-07-17T04:20:31.178Z,2.97
2018-07-17T04:22:59.763Z,3.10
2018-07-17T04:25:29.286Z,3.20
2018-07-17T04:27:57.825Z,3.60
2018-07-17T04:30:26.366Z,3.80
2018-07-17T04:32:55.155Z,3.60
2018-07-17T04:35:24.234Z,3.63
2018-07-17T04:37:53.002Z,2.80
2018-07-17T04:40:21.647Z,2.80
2018-07-17T04:42:50.853Z,3.10
2018-07-17T04:45:20.118Z,3.40
2018-07-17T04:47:48.706Z,3.00
2018-07-17T04:50:17.308Z,2.97
2018-07-17T04:52:45.874Z,3.30
2018-07-17T04:55:14.464Z,3.07
2018-07-17T04:57:43.229Z,3.00
2018-07-17T05:00:11.830Z,3.27
2018-07-17T05:02:40.984Z,3.17
2018-07-17T05:05:09.597Z,4.07
2018-07-17T05:07:38.165Z,3.40
2018-07-17T05:10:06.965Z,3.70
2018-07-17T05:12:35.538Z,3.70
2018-07-17T05:15:04.312Z,4.43
2018-07-17T05:17:32.987Z,4.63
2018-07-17T05:20:01.674Z,4.70
2018-07-17T05:22:30.302Z,4.70
2018-07-17T05:24:58.909Z,4.50
2018-07-17T05:27:28.121Z,5.07
2018-07-17T05:29:56.387Z,5.33
2018-07-17T05:32:25.075Z,6.33
2018-07-17T05:34:53.682Z,6.67
2018-07-17T05:37:22.304Z,6.83
2018-07-17T05:39:50.909Z,7.30
2018-07-17T05:42:19.470Z,6.63
2018-07-17T05:44:48.377Z,6.67
2018-07-17T05:47:16.917Z,7.27
2018-07-17T05:49:45.445Z,7.73
2018-07-17T05:52:14.366Z,8.27
2018-07-17T05:54:42.649Z,8.07
2018-07-17T05:57:10.888Z,8.50
2018-07-17T05:59:40.138Z,8.60
2018-07-17T06:02:10.753Z,8.57
2018-07-17T06:04:39.336Z,8.03
2018-07-17T06:07:07.946Z,7.83
2018-07-17T06:09:36.546Z,7.73
2018-07-17T06:12:05.162Z,7.60
2018-07-17T06:14:33.726Z,6.63
2018-07-17T06:17:03.033Z,7.50
2018-07-17T06:19:32.215Z,7.10
2018-07-17T06:22:00.802Z,6.73
2018-07-17T06:24:29.382Z,6.63
2018-07-17T06:26:57.959Z,7.83
2018-07-17T06:29:27.481Z,6.67
2018-07-17T06:31:56.326Z,6.90
2018-07-17T06:34:24.869Z,6.80
2018-07-17T06:36:53.477Z,6.07
2018-07-17T06:39:22.057Z,6.23
2018-07-17T06:41:50.831Z,5.80
2018-07-17T06:44:19.413Z,5.80
2018-07-17T06:46:48.914Z,6.03
2018-07-17T06:49:18.078Z,4.63
2018-07-17T06:51:48.140Z,4.73
2018-07-17T06:54:16.675Z,5.43
2018-07-17T06:56:45.253Z,5.10
2018-07-17T06:59:14.150Z,5.23
2018-07-17T07:01:42.673Z,5.10
2018-07-17T07:04:11.205Z,4.10
2018-07-17T07:06:39.721Z,4.93
2018-07-17T07:09:09.541Z,4.43
2018-07-17T07:11:38.413Z,4.50
2018-07-17T07:14:07.102Z,4.30
2018-07-17T07:16:35.683Z,4.43
2018-07-17T07:19:05.179Z,4.93
2018-07-17T07:21:33.833Z,4.63
2018-07-17T07:24:02.671Z,5.13
2018-07-17T07:26:31.243Z,4.90
2018-07-17T07:29:00.153Z,4.53
2018-07-17T07:31:28.798Z,5.20
2018-07-17T07:33:57.525Z,5.17
2018-07-17T07:36:27.065Z,4.30
2018-07-17T07:38:56.235Z,5.07
2018-07-17T07:41:25.012Z,4.93
2018-07-17T07:43:53.596Z,5.07
2018-07-17T07:46:22.216Z,4.90
2018-07-17T07:48:50.791Z,4.20
2018-07-17T07:51:19.353Z,3.73
2018-07-17T07:53:47.891Z,3.50
2018-07-17T07:56:16.526Z,4.10
2018-07-17T07:58:45.199Z,3.43
2018-07-17T08:01:13.782Z,3.20
2018-07-17T08:03:42.405Z,3.03
2018-07-17T08:06:10.951Z,3.30
2018-07-17T08:08:39.577Z,3.43
2018-07-17T08:11:08.189Z,3.10
2018-07-17T08:13:36.879Z,3.07
2018-07-17T08:16:05.576Z,2.83
2018-07-17T08:18:34.188Z,3.13
2018-07-17T08:21:02.772Z,3.10
2018-07-17T08:23:31.370Z,3.10
2018-07-17T08:25:59.982Z,2.70
2018-07-17T08:28:31.479Z,2.90
2018-07-17T08:31:00.106Z,2.80
2018-07-17T08:33:28.717Z,3.00
2018-07-17T08:35:57.029Z,2.93
2018-07-17T08:38:25.608Z,3.43
2018-07-17T08:40:54.185Z,2.63
2018-07-17T08:43:23.183Z,2.93
2018-07-17T08:45:52.263Z,2.97
2018-07-17T08:48:20.868Z,2.80
2018-07-17T08:50:50.109Z,2.53
2018-07-17T08:53:18.677Z,3.50
2018-07-17T08:55:47.291Z,2.97
2018-07-17T08:58:15.841Z,2.20
2018-07-17T09:00:45.114Z,2.70
2018-07-17T09:03:13.701Z,2.63
2018-07-17T09:05:42.249Z,2.50
2018-07-17T09:08:11.064Z,2.50
2018-07-17T09:10:39.617Z,2.30
2018-07-17T09:13:08.230Z,2.20
2018-07-17T09:15:36.841Z,2.50
2018-07-17T09:18:05.382Z,2.30
2018-07-17T09:20:34.669Z,2.13
2018-07-17T09:23:03.234Z,2.73
2018-07-17T09:25:31.845Z,2.43
2018-07-17T09:28:00.502Z,2.30
2018-07-17T09:30:34.155Z,2.67
2018-07-17T09:33:02.979Z,2.50
2018-07-17T09:35:31.607Z,2.67
2018-07-17T09:38:00.822Z,2.50
2018-07-17T09:40:29.385Z,2.30
2018-07-17T09:42:57.934Z,2.60
2018-07-17T09:45:26.452Z,2.23
2018-07-17T09:47:55.049Z,2.17
2018-07-17T09:50:23.601Z,2.03
2018-07-17T09:52:52.153Z,1.60
2018-07-17T09:55:20.722Z,2.07
2018-07-17T09:57:49.245Z,2.37
2018-07-17T10:00:23.147Z,2.50
2018-07-17T10:02:52.342Z,2.40
2018-07-17T10:05:20.917Z,2.53
2018-07-17T10:07:49.530Z,2.20
2018-07-17T10:10:18.758Z,3.00
2018-07-17T10:12:47.293Z,2.70
2018-07-17T10:15:15.927Z,2.30
2018-07-17T10:17:44.479Z,2.93
2018-07-17T10:20:13.093Z,2.50
2018-07-17T10:22:42.594Z,2.27
2018-07-17T10:25:12.083Z,2.87
2018-07-17T10:27:41.415Z,2.70
2018-07-17T10:30:10.767Z,2.17
2018-07-17T10:32:39.348Z,2.67
2018-07-17T10:35:09.167Z,2.20
2018-07-17T10:37:39.590Z,2.10
2018-07-17T10:40:09.787Z,2.60
2018-07-17T10:42:39.526Z,2.30
2018-07-17T10:45:09.753Z,2.57
2018-07-17T10:47:38.686Z,2.20
2018-07-17T10:50:08.295Z,2.43
2018-07-17T10:52:37.885Z,2.53
2018-07-17T10:55:06.414Z,2.57
2018-07-17T10:57:34.973Z,3.00
2018-07-17T11:00:03.518Z,2.23
2018-07-17T11:02:33.580Z,2.27
2018-07-17T11:05:02.118Z,2.97
2018-07-17T11:07:31.425Z,2.60
2018-07-17T11:10:04.641Z,2.47
2018-07-17T11:12:35.502Z,2.37
2018-07-17T11:15:05.438Z,2.37
2018-07-17T11:17:34.612Z,2.50
2018-07-17T11:20:03.197Z,2.53
2018-07-17T11:22:34.441Z,2.80
2018-07-17T11:25:04.017Z,2.50
2018-07-17T11:27:39.212Z,2.67
2018-07-17T11:30:10.252Z,3.07
2018-07-17T11:32:40.011Z,2.77
2018-07-17T11:35:10.504Z,2.70
2018-07-17T11:37:44.324Z,2.87
2018-07-17T11:40:14.566Z,2.50
2018-07-17T11:42:43.097Z,2.60
2018-07-17T11:45:13.027Z,3.20
2018-07-17T11:47:43.438Z,2.20
2018-07-17T11:50:12.458Z,2.20
2018-07-17T11:52:40.978Z,2.60
2018-07-17T11:55:10.162Z,2.43
2018-07-17T11:57:40.716Z,1.70
2018-07-17T12:00:09.918Z,1.80
2018-07-17T12:02:39.337Z,1.87
2018-07-17T12:05:13.753Z,1.70
2018-07-17T12:07:46.455Z,1.77
2018-07-17T12:10:16.694Z,1.77
2018-07-17T12:12:45.417Z,1.57
2018-07-17T12:15:13.902Z,1.50
2018-07-17T12:17:42.445Z,1.73
2018-07-17T12:20:11.215Z,1.30
2018-07-17T12:22:39.668Z,1.53
2018-07-17T12:25:08.268Z,1.50
2018-07-17T12:27:36.809Z,1.83
2018-07-17T12:30:07.346Z,1.90
2018-07-17T12:32:36.177Z,1.77
2018-07-17T12:35:05.970Z,2.43
2018-07-17T12:37:34.547Z,1.97
2018-07-17T12:40:03.394Z,2.40
2018-07-17T12:42:32.245Z,1.70
2018-07-17T12:45:01.710Z,2.00
2018-07-17T12:47:30.229Z,2.20
2018-07-17T12:49:59.247Z,1.97
2018-07-17T12:52:27.742Z,2.13
2018-07-17T12:54:56.962Z,1.67
2018-07-17T12:57:25.518Z,1.90
2018-07-17T12:59:55.060Z,1.57
2018-07-17T13:02:23.646Z,2.00
2018-07-17T13:04:52.147Z,1.70
2018-07-17T13:07:20.678Z,1.83
2018-07-17T13:09:49.193Z,1.97
2018-07-17T13:12:18.682Z,1.83
2018-07-17T13:14:46.896Z,1.60
2018-07-17T13:17:17.009Z,1.87
2018-07-17T13:19:46.101Z,1.83
2018-07-17T13:22:15.263Z,2.03
2018-07-17T13:24:43.469Z,1.57
2018-07-17T13:27:12.047Z,1.50
2018-07-17T13:29:41.189Z,1.80
2018-07-17T13:32:11.266Z,1.70
2018-07-17T13:34:39.937Z,1.77
2018-07-17T13:37:09.744Z,1.70
2018-07-17T13:39:38.590Z,1.60
2018-07-17T13:42:07.241Z,1.90
2018-07-17T13:44:36.450Z,1.80
2018-07-17T13:47:05.028Z,1.43
2018-07-17T13:49:33.604Z,1.63
2018-07-17T13:52:02.173Z,1.67
2018-07-17T13:54:31.318Z,1.60
2018-07-17T13:57:00.134Z,1.60
2018-07-17T13:59:30.941Z,1.50
2018-07-17T14:02:01.010Z,1.37
2018-07-17T14:04:29.249Z,1.73
2018-07-17T14:06:59.364Z,1.70
2018-07-17T14:09:27.890Z,1.40
2018-07-17T14:11:57.423Z,1.43
2018-07-17T14:14:26.534Z,1.47
2018-07-17T14:16:55.770Z,1.67
2018-07-17T14:19:25.000Z,1.90
2018-07-17T14:21:56.858Z,1.60
2018-07-17T14:24:26.853Z,1.80
2018-07-17T14:26:55.382Z,1.50
2018-07-17T14:29:26.625Z,1.37
2018-07-17T14:31:55.258Z,1.57
2018-07-17T14:34:25.425Z,1.60
2018-07-17T14:36:55.096Z,1.73
2018-07-17T14:39:24.293Z,1.67
2018-07-17T14:41:53.359Z,2.00
2018-07-17T14:44:23.434Z,1.90
2018-07-17T14:46:52.570Z,2.30
2018-07-17T14:49:21.383Z,2.00
2018-07-17T14:51:49.961Z,2.03
2018-07-17T14:54:19.786Z,1.67
2018-07-17T14:56:48.314Z,1.90
2018-07-17T14:59:18.453Z,2.57
2018-07-17T15:01:47.771Z,2.30
2018-07-17T15:04:16.347Z,2.90
2018-07-17T15:06:45.387Z,2.00
2018-07-17T15:09:13.929Z,2.20
2018-07-17T15:11:42.486Z,2.00
2018-07-17T15:14:11.545Z,2.20
2018-07-17T15:16:40.092Z,2.33
2018-07-17T15:19:09.553Z,2.40
2018-07-17T15:21:38.705Z,2.90
2018-07-17T15:24:07.864Z,3.00
2018-07-17T15:26:36.498Z,3.50
2018-07-17T15:29:05.070Z,3.20
2018-07-17T15:31:33.642Z,2.80
2018-07-17T15:34:03.267Z,3.77
2018-07-17T15:36:31.886Z,3.20
2018-07-17T15:39:00.506Z,3.23
2018-07-17T15:41:29.107Z,2.40
2018-07-17T15:43:57.674Z,2.83
2018-07-17T15:46:26.234Z,3.07
2018-07-17T15:48:54.932Z,3.00
2018-07-17T15:51:23.501Z,2.57
2018-07-17T15:53:52.123Z,3.20
2018-07-17T15:56:20.684Z,2.93
2018-07-17T15:58:49.256Z,2.23
2018-07-17T16:01:17.828Z,2.20
2018-07-17T16:03:46.347Z,2.30
2018-07-17T16:06:14.937Z,2.67
2018-07-17T16:08:43.462Z,2.43
2018-07-17T16:11:11.981Z,2.30
2018-07-17T16:13:40.638Z,2.40
2018-07-17T16:16:09.113Z,2.43
2018-07-17T16:18:37.683Z,2.50
2018-07-17T16:21:06.512Z,2.57
2018-07-17T16:23:35.078Z,2.00
2018-07-17T16:26:03.683Z,2.30
2018-07-17T16:28:32.208Z,2.80
2018-07-17T16:31:00.773Z,2.50
2018-07-17T16:33:29.325Z,2.73
2018-07-17T16:35:57.927Z,2.80
2018-07-17T16:38:26.554Z,2.60
2018-07-17T16:40:55.093Z,2.40
2018-07-17T16:43:25.133Z,3.00
2018-07-17T16:45:53.670Z,3.00
2018-07-17T16:48:23.313Z,2.07
2018-07-17T16:50:52.325Z,2.30
2018-07-17T16:53:20.944Z,2.03
2018-07-17T16:55:49.914Z,2.13
2018-07-17T16:58:18.639Z,2.30
2018-07-17T17:00:47.245Z,2.30
2018-07-17T17:03:17.542Z,2.23
2018-07-17T17:05:46.502Z,2.10
2018-07-17T17:08:15.047Z,2.50
2018-07-17T17:10:43.614Z,2.00
2018-07-17T17:13:12.137Z,2.30
2018-07-17T17:15:40.674Z,2.20
2018-07-17T17:18:09.226Z,2.43
2018-07-17T17:20:37.824Z,2.30
2018-07-17T17:23:07.048Z,2.43
2018-07-17T17:25:35.596Z,2.20
2018-07-17T17:28:04.116Z,1.83
2018-07-17T17:30:32.659Z,1.83
2018-07-17T17:33:01.170Z,2.00
2018-07-17T17:35:29.711Z,2.20
2018-07-17T17:37:58.223Z,1.57
2018-07-17T17:40:26.752Z,1.90
2018-07-17T17:42:55.260Z,2.50
2018-07-17T17:45:23.798Z,1.80
2018-07-17T17:47:53.062Z,1.73
2018-07-17T17:50:21.594Z,1.90
2018-07-17T17:52:50.199Z,2.00
2018-07-17T17:55:18.702Z,1.70
2018-07-17T17:57:47.316Z,1.60
2018-07-17T18:00:15.977Z,1.43
2018-07-17T18:02:44.477Z,1.90
2018-07-17T18:05:14.110Z,2.10
2018-07-17T18:07:42.745Z,1.90
2018-07-17T18:10:11.861Z,1.50
2018-07-17T18:12:40.539Z,1.70
2018-07-17T18:15:10.077Z,1.73
2018-07-17T18:17:38.597Z,2.00
2018-07-17T18:20:07.120Z,1.80
2018-07-17T18:22:36.389Z,1.60
2018-07-17T18:25:06.142Z,1.80
2018-07-17T18:27:34.657Z,1.67
2018-07-17T18:30:03.941Z,1.73
2018-07-17T18:32:33.838Z,1.67
2018-07-17T18:35:02.422Z,1.77
2018-07-17T18:37:30.942Z,1.57
2018-07-17T18:40:00.402Z,1.93
2018-07-17T18:42:29.500Z,1.80
2018-07-17T18:44:58.594Z,1.63
2018-07-17T18:47:28.170Z,1.60
2018-07-17T18:50:12.312Z,1.40
2018-07-17T18:52:26.472Z,1.83
2018-07-17T18:54:55.073Z,1.70
2018-07-17T18:57:23.593Z,1.77
2018-07-17T18:59:53.078Z,1.70
2018-07-17T19:02:21.605Z,2.07
2018-07-17T19:04:50.883Z,1.60
2018-07-17T19:07:19.425Z,1.80
2018-07-17T19:09:47.954Z,1.97
2018-07-17T19:12:28.498Z,1.90
2018-07-17T19:14:56.970Z,1.90
2018-07-17T19:17:27.520Z,1.53
2018-07-17T19:19:56.161Z,1.83
2018-07-17T19:22:24.378Z,1.73
2018-07-17T19:24:52.920Z,1.90
2018-07-17T19:27:21.502Z,1.73
2018-07-17T19:29:50.085Z,1.43
2018-07-17T19:32:18.764Z,2.07
2018-07-17T19:34:48.273Z,2.33
2018-07-17T19:37:16.796Z,1.90
2018-07-17T19:39:46.262Z,1.87
2018-07-17T19:42:14.476Z,1.90
2018-07-17T19:44:43.010Z,1.93
2018-07-17T19:47:11.306Z,1.70
2018-07-17T19:49:40.702Z,1.73
2018-07-17T19:52:11.165Z,2.17
2018-07-17T19:54:41.270Z,2.00
2018-07-17T19:57:10.063Z,1.80
2018-07-17T19:59:38.737Z,2.13
2018-07-17T20:02:07.566Z,2.23
2018-07-17T20:04:36.141Z,1.87
2018-07-17T20:07:04.780Z,1.87
2018-07-17T20:09:34.137Z,2.00
2018-07-17T20:12:02.698Z,2.00
2018-07-17T20:14:31.254Z,2.00
2018-07-17T20:16:59.810Z,2.07
2018-07-17T20:19:28.666Z,2.20
2018-07-17T20:21:57.225Z,2.00
2018-07-17T20:24:25.803Z,2.43
2018-07-17T20:26:54.350Z,2.10
2018-07-17T20:29:23.659Z,1.90
2018-07-17T20:31:52.237Z,2.20
2018-07-17T20:34:20.774Z,2.37
2018-07-17T20:36:49.375Z,2.53
2018-07-17T20:39:17.948Z,2.27
2018-07-17T20:41:46.610Z,2.77
2018-07-17T20:44:15.183Z,2.20
2018-07-17T20:46:43.834Z,2.20
2018-07-17T20:49:12.334Z,1.77
2018-07-17T20:51:40.906Z,2.40
2018-07-17T20:54:09.442Z,2.40
2018-07-17T20:56:38.805Z,2.17
2018-07-17T20:59:07.369Z,2.00
2018-07-17T21:01:35.915Z,2.70
2018-07-17T21:04:04.495Z,2.40
2018-07-17T21:06:33.014Z,2.10
2018-07-17T21:09:01.564Z,2.20
2018-07-17T21:11:30.373Z,3.03
2018-07-17T21:13:58.918Z,2.90
2018-07-17T21:16:27.715Z,2.90
2018-07-17T21:18:56.269Z,3.40
2018-07-17T21:21:24.837Z,2.30
2018-07-17T21:23:53.479Z,2.37
2018-07-17T21:26:22.056Z,2.53
2018-07-17T21:28:50.609Z,2.60
2018-07-17T21:31:19.151Z,2.50
2018-07-17T21:33:47.718Z,2.30
2018-07-17T21:36:16.261Z,2.13
2018-07-17T21:38:44.927Z,2.43
2018-07-17T21:41:14.333Z,2.47
2018-07-17T21:43:42.887Z,2.27
2018-07-17T21:46:11.654Z,2.40
2018-07-17T21:48:40.223Z,2.17
2018-07-17T21:51:08.792Z,2.50
2018-07-17T21:53:37.385Z,2.20
2018-07-17T21:56:05.964Z,2.63
2018-07-17T21:58:34.525Z,2.30
2018-07-17T22:01:03.085Z,2.33
2018-07-17T22:03:31.638Z,2.37
2018-07-17T22:06:00.150Z,2.10
2018-07-17T22:08:28.726Z,2.30
2018-07-17T22:10:57.889Z,2.20
2018-07-17T22:13:26.942Z,2.27
2018-07-17T22:15:56.517Z,2.40
2018-07-17T22:18:25.050Z,2.67
2018-07-17T22:20:53.578Z,2.50
2018-07-17T22:23:22.121Z,2.60
2018-07-17T22:25:50.722Z,2.50
2018-07-17T22:28:19.254Z,2.43
2018-07-17T22:30:47.866Z,2.43
2018-07-17T22:33:16.401Z,2.60
2018-07-17T22:35:45.073Z,2.20
2018-07-17T22:38:14.456Z,2.53
2018-07-17T22:40:43.590Z,2.20
2018-07-17T22:43:12.121Z,2.27
2018-07-17T22:45:40.378Z,2.63
2018-07-17T22:48:08.908Z,2.37
2018-07-17T22:50:37.465Z,2.20
2018-07-17T22:53:06.042Z,2.47
2018-07-17T22:55:34.619Z,2.40
2018-07-17T22:58:03.452Z,2.40
2018-07-17T23:00:32.001Z,2.40
2018-07-17T23:03:00.662Z,2.47
2018-07-17T23:05:29.204Z,2.47
2018-07-17T23:07:57.758Z,2.90
2018-07-17T23:10:26.342Z,2.67
2018-07-17T23:12:54.865Z,2.73
2018-07-17T23:15:23.424Z,2.63
2018-07-17T23:17:51.986Z,2.07
2018-07-17T23:20:20.677Z,2.70
2018-07-17T23:22:53.587Z,2.43
2018-07-17T23:25:23.254Z,2.30
2018-07-17T23:27:52.212Z,2.80
2018-07-17T23:30:20.798Z,2.80
2018-07-17T23:32:50.537Z,2.87
2018-07-17T23:35:20.996Z,2.83
2018-07-17T23:37:50.020Z,2.47
2018-07-17T23:40:18.722Z,2.70
2018-07-17T23:42:47.274Z,2.40
2018-07-17T23:45:16.582Z,2.00
2018-07-17T23:47:45.790Z,2.23
2018-07-17T23:50:14.351Z,2.17
2018-07-17T23:52:42.971Z,2.10
2018-07-17T23:55:11.507Z,2.67
2018-07-17T23:57:40.254Z,2.60
